sensor_id;sensor_type;location;lat;lon;timestamp;P1;durP1;ratioP1;P2;durP2;ratioP2
38130;SDS011;23947;51.894;4.622;2022-10-18T00:00:30;27.13;;;14.10;;
38130;SDS011;23947;51.894;4.622;2022-10-18T00:02:55;26.55;;;14.75;;
38130;SDS011;23947;51.894;4.622;2022-10-18T00:05:21;26.17;;;14.85;;
38130;SDS011;23947;51.894;4.622;2022-10-18T00:07:47;23.77;;;13.80;;
38130;SDS011;23947;51.894;4.622;2022-10-18T00:10:12;26.27;;;16.13;;
38130;SDS011;23947;51.894;4.622;2022-10-18T00:12:38;32.78;;;15.50;;
38130;SDS011;23947;51.894;4.622;2022-10-18T00:15:04;21.70;;;15.02;;
38130;SDS011;23947;51.894;4.622;2022-10-18T00:17:32;24.23;;;15.00;;
38130;SDS011;23947;51.894;4.622;2022-10-18T00:19:59;22.90;;;15.65;;
38130;SDS011;23947;51.894;4.622;2022-10-18T00:22:25;23.52;;;15.48;;
38130;SDS011;23947;51.894;4.622;2022-10-18T00:24:50;23.23;;;14.77;;
38130;SDS011;23947;51.894;4.622;2022-10-18T00:27:16;21.90;;;15.30;;
38130;SDS011;23947;51.894;4.622;2022-10-18T00:29:42;24.25;;;16.73;;
38130;SDS011;23947;51.894;4.622;2022-10-18T00:32:08;28.63;;;17.70;;
38130;SDS011;23947;51.894;4.622;2022-10-18T00:34:33;30.35;;;18.50;;
38130;SDS011;23947;51.894;4.622;2022-10-18T00:36:59;29.27;;;18.75;;
38130;SDS011;23947;51.894;4.622;2022-10-18T00:39:24;29.00;;;18.05;;
38130;SDS011;23947;51.894;4.622;2022-10-18T00:41:50;27.13;;;18.15;;
38130;SDS011;23947;51.894;4.622;2022-10-18T00:46:42;29.85;;;18.20;;
38130;SDS011;23947;51.894;4.622;2022-10-18T00:52:02;26.17;;;15.50;;
38130;SDS011;23947;51.894;4.622;2022-10-18T00:54:31;26.00;;;15.27;;
38130;SDS011;23947;51.894;4.622;2022-10-18T00:56:59;26.27;;;16.52;;
38130;SDS011;23947;51.894;4.622;2022-10-18T00:59:25;24.15;;;15.25;;
38130;SDS011;23947;51.894;4.622;2022-10-18T01:01:51;28.63;;;15.80;;
38130;SDS011;23947;51.894;4.622;2022-10-18T01:04:18;19.92;;;14.18;;
38130;SDS011;23947;51.894;4.622;2022-10-18T01:09:40;21.08;;;14.35;;
38130;SDS011;23947;51.894;4.622;2022-10-18T01:12:36;20.70;;;14.93;;
38130;SDS011;23947;51.894;4.622;2022-10-18T01:15:27;23.97;;;14.53;;
38130;SDS011;23947;51.894;4.622;2022-10-18T01:18:15;24.15;;;14.60;;
38130;SDS011;23947;51.894;4.622;2022-10-18T01:26:02;31.40;;;14.93;;
38130;SDS011;23947;51.894;4.622;2022-10-18T01:28:52;34.50;;;17.52;;
38130;SDS011;23947;51.894;4.622;2022-10-18T01:31:21;30.98;;;17.85;;
38130;SDS011;23947;51.894;4.622;2022-10-18T01:33:57;27.35;;;16.92;;
38130;SDS011;23947;51.894;4.622;2022-10-18T01:36:29;28.13;;;17.08;;
38130;SDS011;23947;51.894;4.622;2022-10-18T01:38:58;25.05;;;17.55;;
38130;SDS011;23947;51.894;4.622;2022-10-18T01:41:29;43.88;;;19.73;;
38130;SDS011;23947;51.894;4.622;2022-10-18T01:43:57;34.47;;;20.50;;
38130;SDS011;23947;51.894;4.622;2022-10-18T01:46:25;36.67;;;19.33;;
38130;SDS011;23947;51.894;4.622;2022-10-18T01:48:52;28.05;;;17.70;;
38130;SDS011;23947;51.894;4.622;2022-10-18T01:51:22;37.92;;;17.55;;
38130;SDS011;23947;51.894;4.622;2022-10-18T01:53:53;30.42;;;16.98;;
38130;SDS011;23947;51.894;4.622;2022-10-18T02:02:05;26.73;;;17.95;;
38130;SDS011;23947;51.894;4.622;2022-10-18T02:05:05;30.73;;;17.13;;
38130;SDS011;23947;51.894;4.622;2022-10-18T02:07:43;25.17;;;16.98;;
38130;SDS011;23947;51.894;4.622;2022-10-18T02:10:14;25.73;;;16.92;;
38130;SDS011;23947;51.894;4.622;2022-10-18T02:12:48;28.67;;;16.85;;
38130;SDS011;23947;51.894;4.622;2022-10-18T02:15:19;26.52;;;16.73;;
38130;SDS011;23947;51.894;4.622;2022-10-18T02:17:48;26.27;;;17.13;;
38130;SDS011;23947;51.894;4.622;2022-10-18T02:20:15;22.25;;;16.08;;
38130;SDS011;23947;51.894;4.622;2022-10-18T02:22:44;29.60;;;16.92;;
38130;SDS011;23947;51.894;4.622;2022-10-18T02:25:15;24.73;;;15.10;;
38130;SDS011;23947;51.894;4.622;2022-10-18T02:27:45;39.20;;;15.85;;
38130;SDS011;23947;51.894;4.622;2022-10-18T02:30:11;34.30;;;16.63;;
38130;SDS011;23947;51.894;4.622;2022-10-18T02:32:50;27.85;;;15.55;;
38130;SDS011;23947;51.894;4.622;2022-10-18T02:35:27;35.53;;;15.20;;
38130;SDS011;23947;51.894;4.622;2022-10-18T02:37:56;36.30;;;15.60;;
38130;SDS011;23947;51.894;4.622;2022-10-18T02:40:23;39.90;;;15.10;;
38130;SDS011;23947;51.894;4.622;2022-10-18T02:42:53;42.20;;;15.57;;
38130;SDS011;23947;51.894;4.622;2022-10-18T02:45:20;19.88;;;14.88;;
38130;SDS011;23947;51.894;4.622;2022-10-18T02:47:46;24.27;;;13.30;;
38130;SDS011;23947;51.894;4.622;2022-10-18T02:50:12;27.60;;;13.35;;
38130;SDS011;23947;51.894;4.622;2022-10-18T02:52:38;36.25;;;14.05;;
38130;SDS011;23947;51.894;4.622;2022-10-18T02:55:05;31.30;;;13.13;;
38130;SDS011;23947;51.894;4.622;2022-10-18T02:57:31;32.85;;;12.80;;
38130;SDS011;23947;51.894;4.622;2022-10-18T02:59:57;21.77;;;11.70;;
38130;SDS011;23947;51.894;4.622;2022-10-18T03:02:23;25.25;;;14.25;;
38130;SDS011;23947;51.894;4.622;2022-10-18T03:04:48;24.85;;;12.48;;
38130;SDS011;23947;51.894;4.622;2022-10-18T03:07:14;24.88;;;12.60;;
38130;SDS011;23947;51.894;4.622;2022-10-18T03:09:40;29.27;;;11.80;;
38130;SDS011;23947;51.894;4.622;2022-10-18T03:12:05;30.95;;;10.98;;
38130;SDS011;23947;51.894;4.622;2022-10-18T03:14:31;19.50;;;11.70;;
38130;SDS011;23947;51.894;4.622;2022-10-18T03:16:56;25.48;;;11.50;;
38130;SDS011;23947;51.894;4.622;2022-10-18T03:19:22;18.00;;;10.60;;
38130;SDS011;23947;51.894;4.622;2022-10-18T03:21:48;22.10;;;12.30;;
38130;SDS011;23947;51.894;4.622;2022-10-18T03:24:13;20.70;;;12.70;;
38130;SDS011;23947;51.894;4.622;2022-10-18T03:26:39;19.65;;;11.93;;
38130;SDS011;23947;51.894;4.622;2022-10-18T03:29:04;19.02;;;12.60;;
38130;SDS011;23947;51.894;4.622;2022-10-18T03:31:30;27.30;;;12.82;;
38130;SDS011;23947;51.894;4.622;2022-10-18T03:33:56;21.55;;;13.48;;
38130;SDS011;23947;51.894;4.622;2022-10-18T03:36:22;35.53;;;13.90;;
38130;SDS011;23947;51.894;4.622;2022-10-18T03:38:47;27.27;;;13.50;;
38130;SDS011;23947;51.894;4.622;2022-10-18T03:41:13;77.07;;;15.65;;
38130;SDS011;23947;51.894;4.622;2022-10-18T03:43:38;51.67;;;14.27;;
38130;SDS011;23947;51.894;4.622;2022-10-18T03:46:04;26.92;;;14.57;;
38130;SDS011;23947;51.894;4.622;2022-10-18T03:48:30;22.92;;;13.98;;
38130;SDS011;23947;51.894;4.622;2022-10-18T03:50:55;37.15;;;12.65;;
38130;SDS011;23947;51.894;4.622;2022-10-18T03:53:21;50.58;;;11.88;;
38130;SDS011;23947;51.894;4.622;2022-10-18T03:55:53;27.65;;;12.13;;
38130;SDS011;23947;51.894;4.622;2022-10-18T03:58:19;22.77;;;12.98;;
38130;SDS011;23947;51.894;4.622;2022-10-18T04:00:48;23.42;;;13.93;;
38130;SDS011;23947;51.894;4.622;2022-10-18T04:03:14;23.70;;;13.05;;
38130;SDS011;23947;51.894;4.622;2022-10-18T04:05:40;25.63;;;12.68;;
38130;SDS011;23947;51.894;4.622;2022-10-18T04:08:06;21.25;;;12.55;;
38130;SDS011;23947;51.894;4.622;2022-10-18T04:10:31;23.85;;;13.13;;
38130;SDS011;23947;51.894;4.622;2022-10-18T04:12:57;20.58;;;12.65;;
38130;SDS011;23947;51.894;4.622;2022-10-18T04:15:23;20.38;;;11.88;;
38130;SDS011;23947;51.894;4.622;2022-10-18T04:17:48;34.67;;;12.50;;
38130;SDS011;23947;51.894;4.622;2022-10-18T04:20:14;15.35;;;8.60;;
38130;SDS011;23947;51.894;4.622;2022-10-18T04:22:39;11.88;;;7.13;;
38130;SDS011;23947;51.894;4.622;2022-10-18T04:25:05;7.95;;;4.57;;
38130;SDS011;23947;51.894;4.622;2022-10-18T04:27:31;10.80;;;3.85;;
38130;SDS011;23947;51.894;4.622;2022-10-18T04:29:56;15.18;;;4.22;;
38130;SDS011;23947;51.894;4.622;2022-10-18T04:32:22;11.00;;;4.28;;
38130;SDS011;23947;51.894;4.622;2022-10-18T04:34:48;8.65;;;4.00;;
38130;SDS011;23947;51.894;4.622;2022-10-18T04:37:13;9.48;;;3.90;;
38130;SDS011;23947;51.894;4.622;2022-10-18T04:39:39;10.43;;;4.25;;
38130;SDS011;23947;51.894;4.622;2022-10-18T04:42:04;11.40;;;5.70;;
38130;SDS011;23947;51.894;4.622;2022-10-18T04:44:30;16.17;;;6.63;;
38130;SDS011;23947;51.894;4.622;2022-10-18T04:46:56;15.02;;;10.55;;
38130;SDS011;23947;51.894;4.622;2022-10-18T04:49:21;19.45;;;10.63;;
38130;SDS011;23947;51.894;4.622;2022-10-18T04:51:47;16.23;;;10.60;;
38130;SDS011;23947;51.894;4.622;2022-10-18T04:54:12;20.95;;;11.77;;
38130;SDS011;23947;51.894;4.622;2022-10-18T04:56:38;25.10;;;13.27;;
38130;SDS011;23947;51.894;4.622;2022-10-18T04:59:04;20.60;;;12.77;;
38130;SDS011;23947;51.894;4.622;2022-10-18T05:01:29;21.45;;;12.98;;
38130;SDS011;23947;51.894;4.622;2022-10-18T05:03:55;23.77;;;13.35;;
38130;SDS011;23947;51.894;4.622;2022-10-18T05:06:21;19.90;;;10.70;;
38130;SDS011;23947;51.894;4.622;2022-10-18T05:08:46;30.00;;;13.63;;
38130;SDS011;23947;51.894;4.622;2022-10-18T05:11:12;20.25;;;13.27;;
38130;SDS011;23947;51.894;4.622;2022-10-18T05:13:38;23.60;;;13.15;;
38130;SDS011;23947;51.894;4.622;2022-10-18T05:16:04;25.50;;;10.75;;
38130;SDS011;23947;51.894;4.622;2022-10-18T05:18:30;16.77;;;7.78;;
38130;SDS011;23947;51.894;4.622;2022-10-18T05:20:56;21.02;;;8.52;;
38130;SDS011;23947;51.894;4.622;2022-10-18T05:23:22;12.20;;;7.22;;
38130;SDS011;23947;51.894;4.622;2022-10-18T05:25:48;21.08;;;6.25;;
38130;SDS011;23947;51.894;4.622;2022-10-18T05:28:13;18.35;;;6.90;;
38130;SDS011;23947;51.894;4.622;2022-10-18T05:30:40;17.38;;;5.63;;
38130;SDS011;23947;51.894;4.622;2022-10-18T05:33:06;16.90;;;4.93;;
38130;SDS011;23947;51.894;4.622;2022-10-18T05:35:32;13.65;;;5.20;;
38130;SDS011;23947;51.894;4.622;2022-10-18T05:37:57;11.70;;;5.43;;
38130;SDS011;23947;51.894;4.622;2022-10-18T05:40:25;16.05;;;5.57;;
38130;SDS011;23947;51.894;4.622;2022-10-18T05:42:51;11.25;;;4.97;;
38130;SDS011;23947;51.894;4.622;2022-10-18T05:45:17;15.38;;;5.05;;
38130;SDS011;23947;51.894;4.622;2022-10-18T05:47:42;15.45;;;4.68;;
38130;SDS011;23947;51.894;4.622;2022-10-18T05:50:08;12.65;;;5.10;;
38130;SDS011;23947;51.894;4.622;2022-10-18T05:52:34;13.52;;;4.13;;
38130;SDS011;23947;51.894;4.622;2022-10-18T05:54:59;11.85;;;3.70;;
38130;SDS011;23947;51.894;4.622;2022-10-18T05:57:25;7.57;;;3.80;;
38130;SDS011;23947;51.894;4.622;2022-10-18T05:59:51;8.75;;;3.55;;
38130;SDS011;23947;51.894;4.622;2022-10-18T06:02:16;7.55;;;3.67;;
38130;SDS011;23947;51.894;4.622;2022-10-18T06:04:42;8.77;;;2.83;;
38130;SDS011;23947;51.894;4.622;2022-10-18T06:07:08;8.90;;;2.80;;
38130;SDS011;23947;51.894;4.622;2022-10-18T06:09:35;8.23;;;2.53;;
38130;SDS011;23947;51.894;4.622;2022-10-18T06:12:01;27.27;;;3.72;;
38130;SDS011;23947;51.894;4.622;2022-10-18T06:14:27;12.02;;;2.55;;
38130;SDS011;23947;51.894;4.622;2022-10-18T06:16:53;10.73;;;3.10;;
38130;SDS011;23947;51.894;4.622;2022-10-18T06:19:20;13.73;;;2.90;;
38130;SDS011;23947;51.894;4.622;2022-10-18T06:21:46;8.55;;;3.25;;
38130;SDS011;23947;51.894;4.622;2022-10-18T06:24:12;11.95;;;3.10;;
38130;SDS011;23947;51.894;4.622;2022-10-18T06:26:38;7.13;;;3.10;;
38130;SDS011;23947;51.894;4.622;2022-10-18T06:29:03;10.43;;;2.97;;
38130;SDS011;23947;51.894;4.622;2022-10-18T06:31:29;8.45;;;2.67;;
38130;SDS011;23947;51.894;4.622;2022-10-18T06:33:55;32.55;;;4.20;;
38130;SDS011;23947;51.894;4.622;2022-10-18T06:36:22;14.23;;;4.22;;
38130;SDS011;23947;51.894;4.622;2022-10-18T06:38:48;18.77;;;8.93;;
38130;SDS011;23947;51.894;4.622;2022-10-18T06:41:14;28.08;;;6.60;;
38130;SDS011;23947;51.894;4.622;2022-10-18T06:43:40;17.52;;;8.10;;
38130;SDS011;23947;51.894;4.622;2022-10-18T06:46:06;38.53;;;6.15;;
38130;SDS011;23947;51.894;4.622;2022-10-18T06:48:33;25.08;;;6.40;;
38130;SDS011;23947;51.894;4.622;2022-10-18T06:51:00;23.75;;;11.20;;
38130;SDS011;23947;51.894;4.622;2022-10-18T06:53:28;22.35;;;10.68;;
38130;SDS011;23947;51.894;4.622;2022-10-18T06:55:59;14.57;;;8.27;;
38130;SDS011;23947;51.894;4.622;2022-10-18T06:58:33;22.42;;;8.63;;
38130;SDS011;23947;51.894;4.622;2022-10-18T07:01:04;20.58;;;8.65;;
38130;SDS011;23947;51.894;4.622;2022-10-18T07:03:33;23.50;;;8.93;;
38130;SDS011;23947;51.894;4.622;2022-10-18T07:06:03;34.67;;;15.95;;
38130;SDS011;23947;51.894;4.622;2022-10-18T07:08:31;29.30;;;13.70;;
38130;SDS011;23947;51.894;4.622;2022-10-18T07:10:57;27.40;;;9.63;;
38130;SDS011;23947;51.894;4.622;2022-10-18T07:13:23;30.27;;;11.27;;
38130;SDS011;23947;51.894;4.622;2022-10-18T07:16:02;30.83;;;11.48;;
38130;SDS011;23947;51.894;4.622;2022-10-18T07:18:30;27.88;;;11.63;;
38130;SDS011;23947;51.894;4.622;2022-10-18T07:21:03;24.05;;;12.35;;
38130;SDS011;23947;51.894;4.622;2022-10-18T07:23:31;25.90;;;10.82;;
38130;SDS011;23947;51.894;4.622;2022-10-18T07:25:58;26.23;;;11.18;;
38130;SDS011;23947;51.894;4.622;2022-10-18T07:28:24;25.02;;;10.95;;
38130;SDS011;23947;51.894;4.622;2022-10-18T07:30:50;30.17;;;11.05;;
38130;SDS011;23947;51.894;4.622;2022-10-18T07:33:16;31.08;;;12.20;;
38130;SDS011;23947;51.894;4.622;2022-10-18T07:35:41;25.80;;;11.18;;
38130;SDS011;23947;51.894;4.622;2022-10-18T07:38:07;28.60;;;11.35;;
38130;SDS011;23947;51.894;4.622;2022-10-18T07:40:32;39.35;;;12.07;;
38130;SDS011;23947;51.894;4.622;2022-10-18T07:42:58;24.27;;;9.95;;
38130;SDS011;23947;51.894;4.622;2022-10-18T07:45:23;30.45;;;11.05;;
38130;SDS011;23947;51.894;4.622;2022-10-18T07:47:53;30.88;;;10.63;;
38130;SDS011;23947;51.894;4.622;2022-10-18T07:50:20;34.42;;;13.48;;
38130;SDS011;23947;51.894;4.622;2022-10-18T07:52:45;36.78;;;12.10;;
38130;SDS011;23947;51.894;4.622;2022-10-18T07:55:11;30.65;;;10.82;;
38130;SDS011;23947;51.894;4.622;2022-10-18T07:57:36;42.33;;;15.32;;
38130;SDS011;23947;51.894;4.622;2022-10-18T08:00:02;32.10;;;11.20;;
38130;SDS011;23947;51.894;4.622;2022-10-18T08:02:28;34.55;;;13.20;;
38130;SDS011;23947;51.894;4.622;2022-10-18T08:04:53;34.80;;;11.65;;
38130;SDS011;23947;51.894;4.622;2022-10-18T08:07:19;35.35;;;11.43;;
38130;SDS011;23947;51.894;4.622;2022-10-18T08:09:45;36.17;;;11.95;;
38130;SDS011;23947;51.894;4.622;2022-10-18T08:12:10;34.15;;;11.30;;
38130;SDS011;23947;51.894;4.622;2022-10-18T08:14:36;39.05;;;10.57;;
38130;SDS011;23947;51.894;4.622;2022-10-18T08:17:01;30.58;;;10.40;;
38130;SDS011;23947;51.894;4.622;2022-10-18T08:19:27;28.13;;;9.68;;
38130;SDS011;23947;51.894;4.622;2022-10-18T08:21:52;29.33;;;10.52;;
38130;SDS011;23947;51.894;4.622;2022-10-18T08:24:18;24.80;;;9.55;;
38130;SDS011;23947;51.894;4.622;2022-10-18T08:26:44;27.60;;;9.23;;
38130;SDS011;23947;51.894;4.622;2022-10-18T08:29:09;29.65;;;10.20;;
38130;SDS011;23947;51.894;4.622;2022-10-18T08:31:35;40.05;;;8.98;;
38130;SDS011;23947;51.894;4.622;2022-10-18T08:34:01;22.25;;;5.65;;
38130;SDS011;23947;51.894;4.622;2022-10-18T08:36:27;23.73;;;4.88;;
38130;SDS011;23947;51.894;4.622;2022-10-18T08:38:52;21.70;;;5.53;;
38130;SDS011;23947;51.894;4.622;2022-10-18T08:44:16;15.77;;;3.45;;
38130;SDS011;23947;51.894;4.622;2022-10-18T08:46:47;25.58;;;3.03;;
38130;SDS011;23947;51.894;4.622;2022-10-18T08:51:52;21.45;;;2.72;;
38130;SDS011;23947;51.894;4.622;2022-10-18T08:54:36;16.88;;;2.17;;
38130;SDS011;23947;51.894;4.622;2022-10-18T08:57:09;20.08;;;2.63;;
38130;SDS011;23947;51.894;4.622;2022-10-18T08:59:39;17.75;;;3.60;;
38130;SDS011;23947;51.894;4.622;2022-10-18T09:02:17;28.58;;;3.65;;
38130;SDS011;23947;51.894;4.622;2022-10-18T09:17:39;19.02;;;1.85;;
38130;SDS011;23947;51.894;4.622;2022-10-18T09:22:20;13.57;;;1.90;;
38130;SDS011;23947;51.894;4.622;2022-10-18T09:25:08;14.10;;;1.48;;
38130;SDS011;23947;51.894;4.622;2022-10-18T09:27:51;13.20;;;0.88;;
38130;SDS011;23947;51.894;4.622;2022-10-18T09:33:38;11.50;;;0.93;;
38130;SDS011;23947;51.894;4.622;2022-10-18T09:36:20;17.23;;;1.27;;
38130;SDS011;23947;51.894;4.622;2022-10-18T09:38:50;13.57;;;1.05;;
38130;SDS011;23947;51.894;4.622;2022-10-18T09:41:20;10.27;;;0.80;;
38130;SDS011;23947;51.894;4.622;2022-10-18T09:43:54;10.30;;;0.80;;
38130;SDS011;23947;51.894;4.622;2022-10-18T09:46:27;15.00;;;0.93;;
38130;SDS011;23947;51.894;4.622;2022-10-18T09:49:03;11.45;;;1.05;;
38130;SDS011;23947;51.894;4.622;2022-10-18T09:59:46;12.88;;;0.70;;
38130;SDS011;23947;51.894;4.622;2022-10-18T10:02:16;21.88;;;1.85;;
38130;SDS011;23947;51.894;4.622;2022-10-18T10:04:47;13.02;;;1.00;;
38130;SDS011;23947;51.894;4.622;2022-10-18T10:07:17;10.90;;;0.80;;
38130;SDS011;23947;51.894;4.622;2022-10-18T10:09:55;9.13;;;0.70;;
38130;SDS011;23947;51.894;4.622;2022-10-18T10:15:12;11.43;;;1.00;;
38130;SDS011;23947;51.894;4.622;2022-10-18T10:17:41;12.50;;;0.77;;
38130;SDS011;23947;51.894;4.622;2022-10-18T10:20:18;10.18;;;0.88;;
38130;SDS011;23947;51.894;4.622;2022-10-18T10:22:49;7.10;;;0.68;;
38130;SDS011;23947;51.894;4.622;2022-10-18T10:25:20;13.05;;;1.15;;
38130;SDS011;23947;51.894;4.622;2022-10-18T10:27:49;13.38;;;2.83;;
38130;SDS011;23947;51.894;4.622;2022-10-18T10:30:32;10.05;;;0.98;;
38130;SDS011;23947;51.894;4.622;2022-10-18T10:32:59;11.88;;;0.90;;
38130;SDS011;23947;51.894;4.622;2022-10-18T10:35:30;11.07;;;0.65;;
38130;SDS011;23947;51.894;4.622;2022-10-18T10:38:05;10.35;;;0.50;;
38130;SDS011;23947;51.894;4.622;2022-10-18T10:40:48;11.27;;;0.80;;
38130;SDS011;23947;51.894;4.622;2022-10-18T10:43:18;10.90;;;0.80;;
38130;SDS011;23947;51.894;4.622;2022-10-18T10:48:22;9.98;;;1.20;;
38130;SDS011;23947;51.894;4.622;2022-10-18T10:50:59;10.57;;;0.73;;
38130;SDS011;23947;51.894;4.622;2022-10-18T10:56:06;9.05;;;0.82;;
38130;SDS011;23947;51.894;4.622;2022-10-18T10:58:41;6.90;;;0.98;;
38130;SDS011;23947;51.894;4.622;2022-10-18T11:01:23;11.05;;;0.75;;
38130;SDS011;23947;51.894;4.622;2022-10-18T11:03:55;10.18;;;1.05;;
38130;SDS011;23947;51.894;4.622;2022-10-18T11:06:30;14.88;;;0.80;;
38130;SDS011;23947;51.894;4.622;2022-10-18T11:09:00;10.55;;;1.10;;
38130;SDS011;23947;51.894;4.622;2022-10-18T11:11:33;8.27;;;0.70;;
38130;SDS011;23947;51.894;4.622;2022-10-18T11:14:08;12.80;;;1.00;;
38130;SDS011;23947;51.894;4.622;2022-10-18T11:22:23;6.40;;;0.90;;
38130;SDS011;23947;51.894;4.622;2022-10-18T11:24:53;14.40;;;0.80;;
38130;SDS011;23947;51.894;4.622;2022-10-18T11:32:57;10.43;;;0.70;;
38130;SDS011;23947;51.894;4.622;2022-10-18T11:35:40;14.93;;;0.88;;
38130;SDS011;23947;51.894;4.622;2022-10-18T11:38:27;11.05;;;0.70;;
38130;SDS011;23947;51.894;4.622;2022-10-18T11:49:40;9.35;;;1.55;;
38130;SDS011;23947;51.894;4.622;2022-10-18T11:51:44;11.45;;;0.80;;
38130;SDS011;23947;51.894;4.622;2022-10-18T11:59:27;11.38;;;0.68;;
38130;SDS011;23947;51.894;4.622;2022-10-18T12:04:50;8.18;;;0.90;;
38130;SDS011;23947;51.894;4.622;2022-10-18T12:07:19;9.98;;;0.65;;
38130;SDS011;23947;51.894;4.622;2022-10-18T12:09:48;9.77;;;0.80;;
38130;SDS011;23947;51.894;4.622;2022-10-18T12:12:31;8.50;;;0.60;;
38130;SDS011;23947;51.894;4.622;2022-10-18T12:15:03;10.30;;;0.60;;
38130;SDS011;23947;51.894;4.622;2022-10-18T12:17:38;12.73;;;0.73;;
38130;SDS011;23947;51.894;4.622;2022-10-18T12:20:09;12.15;;;1.40;;
38130;SDS011;23947;51.894;4.622;2022-10-18T12:22:51;6.97;;;0.60;;
38130;SDS011;23947;51.894;4.622;2022-10-18T12:25:24;6.63;;;0.70;;
38130;SDS011;23947;51.894;4.622;2022-10-18T12:28:06;6.65;;;0.80;;
38130;SDS011;23947;51.894;4.622;2022-10-18T12:30:38;8.07;;;0.47;;
38130;SDS011;23947;51.894;4.622;2022-10-18T12:33:18;3.55;;;0.40;;
38130;SDS011;23947;51.894;4.622;2022-10-18T12:38:25;3.47;;;0.30;;
38130;SDS011;23947;51.894;4.622;2022-10-18T12:40:55;7.40;;;0.40;;
38130;SDS011;23947;51.894;4.622;2022-10-18T12:43:22;5.35;;;0.40;;
38130;SDS011;23947;51.894;4.622;2022-10-18T12:45:58;6.47;;;0.50;;
38130;SDS011;23947;51.894;4.622;2022-10-18T12:48:27;7.53;;;0.70;;
38130;SDS011;23947;51.894;4.622;2022-10-18T12:51:04;6.10;;;0.50;;
38130;SDS011;23947;51.894;4.622;2022-10-18T12:53:36;7.40;;;0.75;;
38130;SDS011;23947;51.894;4.622;2022-10-18T13:09:39;6.72;;;0.73;;
38130;SDS011;23947;51.894;4.622;2022-10-18T13:17:05;5.85;;;0.50;;
38130;SDS011;23947;51.894;4.622;2022-10-18T13:22:41;19.70;;;0.98;;
38130;SDS011;23947;51.894;4.622;2022-10-18T13:39:39;6.13;;;0.40;;
38130;SDS011;23947;51.894;4.622;2022-10-18T13:44:51;6.18;;;0.50;;
38130;SDS011;23947;51.894;4.622;2022-10-18T13:47:33;10.50;;;0.50;;
38130;SDS011;23947;51.894;4.622;2022-10-18T13:53:16;9.10;;;0.70;;
38130;SDS011;23947;51.894;4.622;2022-10-18T13:55:55;10.73;;;0.43;;
38130;SDS011;23947;51.894;4.622;2022-10-18T13:59:30;6.75;;;0.52;;
38130;SDS011;23947;51.894;4.622;2022-10-18T14:04:56;7.72;;;0.40;;
38130;SDS011;23947;51.894;4.622;2022-10-18T14:07:44;8.25;;;0.50;;
38130;SDS011;23947;51.894;4.622;2022-10-18T14:10:16;5.75;;;0.40;;
38130;SDS011;23947;51.894;4.622;2022-10-18T14:12:46;7.80;;;0.43;;
38130;SDS011;23947;51.894;4.622;2022-10-18T14:15:25;8.13;;;0.50;;
38130;SDS011;23947;51.894;4.622;2022-10-18T14:18:03;5.32;;;0.38;;
38130;SDS011;23947;51.894;4.622;2022-10-18T14:20:40;6.10;;;0.40;;
38130;SDS011;23947;51.894;4.622;2022-10-18T14:25:41;4.82;;;0.30;;
38130;SDS011;23947;51.894;4.622;2022-10-18T14:30:58;7.68;;;0.40;;
38130;SDS011;23947;51.894;4.622;2022-10-18T14:33:35;6.95;;;0.45;;
38130;SDS011;23947;51.894;4.622;2022-10-18T14:38:47;8.05;;;0.57;;
38130;SDS011;23947;51.894;4.622;2022-10-18T14:43:42;8.50;;;0.55;;
38130;SDS011;23947;51.894;4.622;2022-10-18T14:46:09;6.05;;;0.30;;
38130;SDS011;23947;51.894;4.622;2022-10-18T14:48:41;10.02;;;0.52;;
38130;SDS011;23947;51.894;4.622;2022-10-18T14:51:15;4.22;;;0.30;;
38130;SDS011;23947;51.894;4.622;2022-10-18T14:53:41;8.05;;;0.40;;
38130;SDS011;23947;51.894;4.622;2022-10-18T14:56:09;4.32;;;0.25;;
38130;SDS011;23947;51.894;4.622;2022-10-18T14:58:54;5.78;;;0.38;;
38130;SDS011;23947;51.894;4.622;2022-10-18T15:01:22;9.80;;;0.55;;
38130;SDS011;23947;51.894;4.622;2022-10-18T15:03:54;7.53;;;0.30;;
38130;SDS011;23947;51.894;4.622;2022-10-18T15:06:21;6.68;;;0.50;;
38130;SDS011;23947;51.894;4.622;2022-10-18T15:08:48;6.25;;;0.30;;
38130;SDS011;23947;51.894;4.622;2022-10-18T15:11:25;8.27;;;0.75;;
38130;SDS011;23947;51.894;4.622;2022-10-18T15:13:52;7.38;;;0.82;;
38130;SDS011;23947;51.894;4.622;2022-10-18T15:16:22;12.45;;;0.50;;
38130;SDS011;23947;51.894;4.622;2022-10-18T15:19:03;9.80;;;0.80;;
38130;SDS011;23947;51.894;4.622;2022-10-18T15:21:48;7.10;;;0.60;;
38130;SDS011;23947;51.894;4.622;2022-10-18T15:24:27;9.55;;;1.05;;
38130;SDS011;23947;51.894;4.622;2022-10-18T15:26:54;7.95;;;0.98;;
38130;SDS011;23947;51.894;4.622;2022-10-18T15:29:23;6.70;;;0.43;;
38130;SDS011;23947;51.894;4.622;2022-10-18T15:31:50;8.50;;;0.73;;
38130;SDS011;23947;51.894;4.622;2022-10-18T15:36:50;11.32;;;0.80;;
38130;SDS011;23947;51.894;4.622;2022-10-18T15:41:46;11.73;;;0.70;;
38130;SDS011;23947;51.894;4.622;2022-10-18T15:46:56;9.00;;;0.52;;
38130;SDS011;23947;51.894;4.622;2022-10-18T15:52:52;13.30;;;1.00;;
38130;SDS011;23947;51.894;4.622;2022-10-18T15:58:01;7.15;;;0.40;;
38130;SDS011;23947;51.894;4.622;2022-10-18T16:00:35;10.48;;;0.70;;
38130;SDS011;23947;51.894;4.622;2022-10-18T16:03:00;8.20;;;0.45;;
38130;SDS011;23947;51.894;4.622;2022-10-18T16:05:26;10.05;;;0.60;;
38130;SDS011;23947;51.894;4.622;2022-10-18T16:07:52;13.27;;;1.08;;
38130;SDS011;23947;51.894;4.622;2022-10-18T16:10:18;11.43;;;0.80;;
38130;SDS011;23947;51.894;4.622;2022-10-18T16:12:44;10.10;;;0.75;;
38130;SDS011;23947;51.894;4.622;2022-10-18T16:15:10;13.52;;;1.05;;
38130;SDS011;23947;51.894;4.622;2022-10-18T16:17:35;11.52;;;0.63;;
38130;SDS011;23947;51.894;4.622;2022-10-18T16:20:01;10.68;;;0.70;;
38130;SDS011;23947;51.894;4.622;2022-10-18T16:22:27;11.10;;;0.90;;
38130;SDS011;23947;51.894;4.622;2022-10-18T16:24:53;11.20;;;0.70;;
38130;SDS011;23947;51.894;4.622;2022-10-18T16:27:18;9.27;;;0.75;;
38130;SDS011;23947;51.894;4.622;2022-10-18T16:29:45;8.85;;;0.50;;
38130;SDS011;23947;51.894;4.622;2022-10-18T16:32:10;14.88;;;0.77;;
38130;SDS011;23947;51.894;4.622;2022-10-18T16:34:36;11.50;;;0.50;;
38130;SDS011;23947;51.894;4.622;2022-10-18T16:37:01;12.23;;;0.60;;
38130;SDS011;23947;51.894;4.622;2022-10-18T16:39:27;11.57;;;0.70;;
38130;SDS011;23947;51.894;4.622;2022-10-18T16:41:58;10.68;;;0.82;;
38130;SDS011;23947;51.894;4.622;2022-10-18T16:44:24;8.55;;;0.70;;
38130;SDS011;23947;51.894;4.622;2022-10-18T16:46:50;7.50;;;0.63;;
38130;SDS011;23947;51.894;4.622;2022-10-18T16:49:19;12.10;;;0.65;;
38130;SDS011;23947;51.894;4.622;2022-10-18T16:51:49;18.25;;;0.60;;
38130;SDS011;23947;51.894;4.622;2022-10-18T16:54:16;10.48;;;0.88;;
38130;SDS011;23947;51.894;4.622;2022-10-18T16:56:41;12.60;;;0.80;;
38130;SDS011;23947;51.894;4.622;2022-10-18T16:59:08;8.90;;;0.85;;
38130;SDS011;23947;51.894;4.622;2022-10-18T17:01:40;17.40;;;0.98;;
38130;SDS011;23947;51.894;4.622;2022-10-18T17:04:06;10.45;;;0.95;;
38130;SDS011;23947;51.894;4.622;2022-10-18T17:06:31;11.30;;;1.15;;
38130;SDS011;23947;51.894;4.622;2022-10-18T17:08:57;10.73;;;0.80;;
38130;SDS011;23947;51.894;4.622;2022-10-18T17:11:24;11.85;;;0.93;;
38130;SDS011;23947;51.894;4.622;2022-10-18T17:13:51;9.43;;;0.60;;
38130;SDS011;23947;51.894;4.622;2022-10-18T17:18:48;10.93;;;0.80;;
38130;SDS011;23947;51.894;4.622;2022-10-18T17:21:13;16.88;;;1.15;;
38130;SDS011;23947;51.894;4.622;2022-10-18T17:23:39;17.30;;;1.02;;
38130;SDS011;23947;51.894;4.622;2022-10-18T17:26:04;13.27;;;1.38;;